createdAt,value
2019-01-11T00:01:51.111Z,98805.02
2019-01-11T00:04:56.784Z,98823.14
2019-01-11T00:08:02.478Z,98835.87
2019-01-11T00:11:08.186Z,98847.51
2019-01-11T00:14:13.957Z,98852.23
2019-01-11T00:17:19.675Z,98855.38
2019-01-11T00:20:25.271Z,98859.52
2019-01-11T00:23:30.870Z,98860.48
2019-01-11T00:26:36.497Z,98858.58
2019-01-11T00:29:42.131Z,98869.46
2019-01-11T00:32:47.980Z,98888.10
2019-01-11T00:35:53.607Z,98889.87
2019-01-11T00:38:59.646Z,98896.87
2019-01-11T00:42:06.985Z,98894.78
2019-01-11T00:45:12.843Z,98897.92
2019-01-11T00:48:18.564Z,98897.91
2019-01-11T00:51:24.324Z,98901.39
2019-01-11T00:54:29.996Z,98906.70
2019-01-11T00:57:35.595Z,98905.61
2019-01-11T01:00:41.214Z,98905.05
2019-01-11T01:03:46.857Z,98913.78
2019-01-11T01:06:53.577Z,98932.34
2019-01-11T01:09:59.180Z,98934.19
2019-01-11T01:13:05.606Z,98930.75
2019-01-11T01:16:11.390Z,98935.83
2019-01-11T01:19:20.134Z,98943.83
2019-01-11T01:22:24.337Z,98952.41
2019-01-11T01:25:30.023Z,98957.88
2019-01-11T01:28:35.667Z,98955.09
2019-01-11T01:31:43.049Z,98953.79
2019-01-11T01:34:48.843Z,98960.38
2019-01-11T01:37:54.562Z,98958.02
2019-01-11T01:41:00.152Z,98958.84
2019-01-11T01:44:05.931Z,98957.30
2019-01-11T01:47:11.560Z,98964.19
2019-01-11T01:50:17.292Z,98962.06
2019-01-11T01:53:22.952Z,98972.16
2019-01-11T01:56:28.583Z,98978.14
2019-01-11T01:59:34.355Z,98975.77
2019-01-11T02:02:40.224Z,98976.88
2019-01-11T02:05:45.878Z,98977.27
2019-01-11T02:08:51.506Z,98983.77
2019-01-11T02:11:57.186Z,98984.55
2019-01-11T02:15:02.973Z,98983.66
2019-01-11T02:18:08.561Z,98978.73
2019-01-11T02:21:14.151Z,98984.80
2019-01-11T02:24:19.899Z,98993.75
2019-01-11T02:27:25.536Z,98990.68
2019-01-11T02:30:31.226Z,98998.11
2019-01-11T02:33:36.857Z,98995.05
2019-01-11T02:36:42.522Z,98997.16
2019-01-11T02:39:48.184Z,98993.31
2019-01-11T02:42:53.815Z,98997.30
2019-01-11T02:45:59.408Z,98999.88
2019-01-11T02:49:05.208Z,98997.05
2019-01-11T02:52:10.925Z,99005.63
2019-01-11T02:55:16.645Z,99001.41
2019-01-11T02:58:22.279Z,99009.73
2019-01-11T03:01:28.135Z,99010.31
2019-01-11T03:04:33.886Z,99016.79
2019-01-11T03:07:39.502Z,99025.11
2019-01-11T03:10:45.234Z,99038.38
2019-01-11T03:13:50.850Z,99040.83
2019-01-11T03:16:56.663Z,99041.66
2019-01-11T03:20:02.403Z,99053.14
2019-01-11T03:23:08.250Z,99059.56
2019-01-11T03:26:13.884Z,99071.26
2019-01-11T03:29:19.497Z,99073.25
2019-01-11T03:32:25.110Z,99069.97
2019-01-11T03:35:30.732Z,99079.69
2019-01-11T03:38:36.305Z,99085.31
2019-01-11T03:42:09.138Z,99089.08
2019-01-11T03:45:16.947Z,99099.08
2019-01-11T03:48:22.571Z,99096.96
2019-01-11T03:51:28.335Z,99103.88
2019-01-11T03:54:33.954Z,99110.64
2019-01-11T03:57:39.624Z,99111.73
2019-01-11T04:00:45.280Z,99117.91
2019-01-11T04:03:50.947Z,99112.16
2019-01-11T04:06:56.523Z,99124.23
2019-01-11T04:10:02.271Z,99129.30
2019-01-11T04:13:07.964Z,99144.55
2019-01-11T04:16:13.586Z,99156.55
2019-01-11T04:19:19.245Z,99167.89
2019-01-11T04:22:29.745Z,99171.71
2019-01-11T04:25:46.939Z,99167.80
2019-01-11T04:28:52.645Z,99179.73
2019-01-11T04:31:58.314Z,99176.77
2019-01-11T04:35:04.632Z,99177.33
2019-01-11T04:38:10.273Z,99172.58
2019-01-11T04:41:15.848Z,99184.17
2019-01-11T04:44:21.440Z,99183.48
2019-01-11T04:47:27.232Z,99190.01
2019-01-11T04:50:32.874Z,99189.13
2019-01-11T04:53:38.577Z,99195.14
2019-01-11T04:56:44.239Z,99196.45
2019-01-11T04:59:49.835Z,99205.50
2019-01-11T05:02:55.420Z,99214.13
2019-01-11T05:06:01.160Z,99217.25
2019-01-11T05:09:08.077Z,99232.95
2019-01-11T05:12:13.787Z,99234.14
2019-01-11T05:15:19.529Z,99234.77
2019-01-11T05:18:25.195Z,99244.46
2019-01-11T05:21:30.846Z,99256.56
2019-01-11T05:24:36.421Z,99257.64
2019-01-11T05:27:42.145Z,99269.14
2019-01-11T05:30:47.767Z,99266.28
2019-01-11T05:33:53.495Z,99281.24
2019-01-11T05:36:59.269Z,99283.90
2019-01-11T05:40:06.276Z,99287.89
2019-01-11T05:43:11.956Z,99305.05
2019-01-11T05:46:17.636Z,99298.44
2019-01-11T05:49:23.272Z,99298.61
2019-01-11T05:52:28.944Z,99300.27
2019-01-11T05:55:48.499Z,99310.78
2019-01-11T05:59:12.981Z,99312.41
2019-01-11T06:02:18.591Z,99318.97
2019-01-11T06:05:24.295Z,99312.03
2019-01-11T06:08:30.897Z,99318.84
2019-01-11T06:11:36.487Z,99327.05
2019-01-11T06:14:42.125Z,99333.08
2019-01-11T06:17:47.749Z,99332.00
2019-01-11T06:20:53.399Z,99338.86
2019-01-11T06:23:59.064Z,99348.10
2019-01-11T06:27:04.892Z,99347.98
2019-01-11T06:30:13.064Z,99352.34
2019-01-11T06:33:18.705Z,99354.22
2019-01-11T06:36:24.317Z,99347.44
2019-01-11T06:39:30.054Z,99351.65
2019-01-11T06:42:36.722Z,99360.45
2019-01-11T06:45:42.353Z,99359.78
2019-01-11T06:48:48.007Z,99352.73
2019-01-11T06:51:54.451Z,99360.23
2019-01-11T06:55:00.178Z,99352.72
2019-01-11T06:58:05.886Z,99351.54
2019-01-11T07:01:11.549Z,99360.31
2019-01-11T07:04:17.177Z,99369.49
2019-01-11T07:07:22.800Z,99370.00
2019-01-11T07:10:28.561Z,99370.63
2019-01-11T07:13:34.236Z,99376.07
2019-01-11T07:16:39.904Z,99376.81
2019-01-11T07:19:45.572Z,99382.70
2019-01-11T07:22:51.184Z,99378.73
2019-01-11T07:25:56.923Z,99403.83
2019-01-11T07:29:02.582Z,99392.83
2019-01-11T07:32:08.201Z,99385.67
2019-01-11T07:35:13.995Z,99390.76
2019-01-11T07:38:19.787Z,99399.66
2019-01-11T07:41:25.403Z,99405.63
2019-01-11T07:44:31.145Z,99402.00
2019-01-11T07:47:36.745Z,99399.59
2019-01-11T07:50:42.367Z,99402.00
2019-01-11T07:53:48.077Z,99410.82
2019-01-11T07:56:54.468Z,99424.84
2019-01-11T08:00:00.094Z,99401.00
2019-01-11T08:03:06.050Z,99413.26
2019-01-11T08:06:11.859Z,99408.36
2019-01-11T08:09:17.574Z,99422.06
2019-01-11T08:12:23.299Z,99422.92
2019-01-11T08:15:29.117Z,99418.67
2019-01-11T08:18:34.717Z,99429.90
2019-01-11T08:21:40.413Z,99439.44
2019-01-11T08:24:53.780Z,99427.66
2019-01-11T08:28:06.587Z,99430.24
2019-01-11T08:31:12.214Z,99422.52
2019-01-11T08:34:17.957Z,99418.47
2019-01-11T08:37:24.593Z,99420.63
2019-01-11T08:40:30.309Z,99421.71
2019-01-11T08:43:37.117Z,99426.11
2019-01-11T08:46:42.888Z,99425.44
2019-01-11T08:49:48.595Z,99418.61
2019-01-11T08:52:54.453Z,99422.63
2019-01-11T08:56:00.117Z,99429.06
2019-01-11T08:59:05.860Z,99436.03
2019-01-11T09:02:11.485Z,99437.86
2019-01-11T09:05:17.256Z,99443.13
2019-01-11T09:08:23.028Z,99431.20
2019-01-11T09:11:28.616Z,99429.59
2019-01-11T09:14:51.914Z,99430.84
2019-01-11T09:18:17.956Z,99428.77
2019-01-11T09:21:23.877Z,99444.67
2019-01-11T09:24:29.624Z,99435.70
2019-01-11T09:27:35.353Z,99428.10
2019-01-11T09:30:41.180Z,99430.84
2019-01-11T09:33:46.906Z,99437.49
2019-01-11T09:36:52.656Z,99435.78
2019-01-11T09:39:58.500Z,99430.27
2019-01-11T09:43:04.443Z,99440.95
2019-01-11T09:46:10.744Z,99429.98
2019-01-11T09:49:16.499Z,99431.41
2019-01-11T09:52:22.274Z,99438.93
2019-01-11T09:55:28.016Z,99435.86
2019-01-11T09:58:33.747Z,99435.50
2019-01-11T10:01:39.591Z,99428.23
2019-01-11T10:04:45.421Z,99435.09
2019-01-11T10:07:52.271Z,99429.73
2019-01-11T10:10:58.021Z,99416.93
2019-01-11T10:14:03.886Z,99421.20
2019-01-11T10:17:09.743Z,99419.16
2019-01-11T10:20:15.754Z,99414.92
2019-01-11T10:23:21.551Z,99415.77
2019-01-11T10:26:27.392Z,99409.80
2019-01-11T10:29:33.205Z,99405.45
2019-01-11T10:32:38.918Z,99400.55
2019-01-11T10:35:44.570Z,99397.81
2019-01-11T10:38:50.209Z,99389.95
2019-01-11T10:41:55.890Z,99393.23
2019-01-11T10:45:01.514Z,99402.48
2019-01-11T10:48:07.219Z,99392.73
2019-01-11T10:51:12.949Z,99391.39
2019-01-11T10:54:30.009Z,99395.22
2019-01-11T10:57:35.636Z,99397.67
2019-01-11T11:00:41.318Z,99397.82
2019-01-11T11:03:47.039Z,99388.44
2019-01-11T11:06:52.675Z,99387.59
2019-01-11T11:09:59.612Z,99398.66
2019-01-11T11:13:05.301Z,99398.42
2019-01-11T11:16:10.976Z,99400.80
2019-01-11T11:19:16.686Z,99403.87
2019-01-11T11:22:22.319Z,99394.34
2019-01-11T11:25:27.996Z,99407.11
2019-01-11T11:28:33.583Z,99409.14
2019-01-11T11:31:39.211Z,99406.77
2019-01-11T11:34:46.481Z,99414.77
2019-01-11T11:37:52.084Z,99402.44
2019-01-11T11:40:57.700Z,99414.41
2019-01-11T11:44:03.333Z,99422.25
2019-01-11T11:47:08.938Z,99419.00
2019-01-11T11:50:14.989Z,99425.19
2019-01-11T11:53:20.777Z,99420.58
2019-01-11T11:56:26.464Z,99412.23
2019-01-11T11:59:32.106Z,99416.35
2019-01-11T12:02:37.796Z,99418.91
2019-01-11T12:05:43.387Z,99424.09
2019-01-11T12:08:49.083Z,99426.06
2019-01-11T12:11:54.794Z,99436.09
2019-01-11T12:15:00.440Z,99432.66
2019-01-11T12:18:06.215Z,99440.60
2019-01-11T12:21:12.040Z,99448.64
2019-01-11T12:24:18.692Z,99446.56
2019-01-11T12:27:24.345Z,99446.83
2019-01-11T12:30:30.061Z,99443.41
2019-01-11T12:33:35.682Z,99444.19
2019-01-11T12:36:41.507Z,99434.46
2019-01-11T12:39:47.161Z,99442.66
2019-01-11T12:42:52.792Z,99442.05
2019-01-11T12:45:58.422Z,99448.27
2019-01-11T12:49:04.075Z,99457.07
2019-01-11T12:52:09.755Z,99459.33
2019-01-11T12:55:15.438Z,99454.45
2019-01-11T12:58:21.130Z,99470.16
2019-01-11T13:01:26.744Z,99462.76
2019-01-11T13:04:32.372Z,99474.47
2019-01-11T13:07:38.016Z,99478.89
2019-01-11T13:10:43.625Z,99488.44
2019-01-11T13:13:49.284Z,99490.44
2019-01-11T13:16:55.161Z,99487.17
2019-01-11T13:20:00.962Z,99495.69
2019-01-11T13:23:06.861Z,99505.37
2019-01-11T13:26:12.651Z,99503.23
2019-01-11T13:29:18.283Z,99505.89
2019-01-11T13:32:23.996Z,99521.00
2019-01-11T13:35:29.606Z,99525.02
2019-01-11T13:38:35.308Z,99529.97
2019-01-11T13:41:41.122Z,99535.92
2019-01-11T13:44:46.749Z,99550.63
2019-01-11T13:47:52.647Z,99554.98
2019-01-11T13:50:58.271Z,99552.98
2019-01-11T13:54:04.436Z,99552.99
2019-01-11T13:57:10.039Z,99548.30
2019-01-11T14:00:15.843Z,99553.90
2019-01-11T14:03:21.556Z,99558.95
2019-01-11T14:06:27.207Z,99556.56
2019-01-11T14:09:33.242Z,99563.12
2019-01-11T14:12:38.867Z,99565.39
2019-01-11T14:15:44.646Z,99565.51
2019-01-11T14:18:50.330Z,99574.81
2019-01-11T14:21:55.978Z,99573.12
2019-01-11T14:25:01.666Z,99574.31
2019-01-11T14:28:07.450Z,99571.73
2019-01-11T14:31:13.185Z,99577.98
2019-01-11T14:34:18.949Z,99583.61
2019-01-11T14:37:24.614Z,99578.45
2019-01-11T14:40:30.225Z,99583.11
2019-01-11T14:43:35.809Z,99585.15
2019-01-11T14:46:41.445Z,99592.63
2019-01-11T14:49:47.111Z,99598.33
2019-01-11T14:52:52.908Z,99602.42
2019-01-11T14:55:58.540Z,99608.53
2019-01-11T14:59:04.202Z,99601.90
2019-01-11T15:02:09.857Z,99610.05
2019-01-11T15:05:16.302Z,99600.22
2019-01-11T15:08:21.949Z,99603.48
2019-01-11T15:11:27.587Z,99605.33
2019-01-11T15:14:33.229Z,99606.84
2019-01-11T15:17:38.929Z,99613.87
2019-01-11T15:20:44.516Z,99618.83
2019-01-11T15:23:50.136Z,99626.70
2019-01-11T15:26:55.726Z,99632.17
2019-01-11T15:30:01.373Z,99631.05
2019-01-11T15:33:07.074Z,99630.39
2019-01-11T15:36:12.735Z,99625.00
2019-01-11T15:39:18.385Z,99629.63
2019-01-11T15:42:24.023Z,99631.66
2019-01-11T15:45:29.658Z,99637.97
2019-01-11T15:48:45.055Z,99644.43
2019-01-11T15:51:50.675Z,99645.34
2019-01-11T15:54:56.333Z,99651.92
2019-01-11T15:58:01.957Z,99657.36
2019-01-11T16:01:07.743Z,99658.26
2019-01-11T16:04:13.392Z,99657.09
2019-01-11T16:07:19.047Z,99662.83
2019-01-11T16:10:24.731Z,99658.65
2019-01-11T16:13:56.434Z,99671.02
2019-01-11T16:17:06.596Z,99665.28
2019-01-11T16:20:12.839Z,99675.36
2019-01-11T16:23:18.598Z,99667.44
2019-01-11T16:26:24.223Z,99668.95
2019-01-11T16:29:29.813Z,99676.66
2019-01-11T16:32:35.533Z,99683.50
2019-01-11T16:35:41.485Z,99682.13
2019-01-11T16:38:47.097Z,99688.48
2019-01-11T16:41:52.697Z,99693.89
2019-01-11T16:44:58.321Z,99691.94
2019-01-11T16:48:04.025Z,99702.89
2019-01-11T16:51:09.639Z,99709.21
2019-01-11T16:54:15.425Z,99710.56
2019-01-11T16:57:21.059Z,99711.39
2019-01-11T17:00:26.840Z,99712.30
2019-01-11T17:03:32.565Z,99719.48
2019-01-11T17:06:38.330Z,99721.23
2019-01-11T17:09:43.968Z,99716.97
2019-01-11T17:12:49.584Z,99726.05
2019-01-11T17:15:55.177Z,99724.23
2019-01-11T17:19:00.865Z,99722.55
2019-01-11T17:22:06.777Z,99725.73
2019-01-11T17:25:12.546Z,99721.03
2019-01-11T17:28:18.170Z,99724.86
2019-01-11T17:31:23.805Z,99719.70
2019-01-11T17:34:29.413Z,99724.85
2019-01-11T17:37:35.037Z,99727.59
2019-01-11T17:40:40.682Z,99731.65
2019-01-11T17:43:46.416Z,99727.13
2019-01-11T17:46:52.073Z,99720.16
2019-01-11T17:50:01.157Z,99730.55
2019-01-11T17:53:05.353Z,99743.55
2019-01-11T17:56:11.153Z,99746.02
2019-01-11T17:59:16.794Z,99738.66
2019-01-11T18:02:22.448Z,99747.66
2019-01-11T18:05:28.133Z,99746.12
2019-01-11T18:08:33.783Z,99749.04
2019-01-11T18:11:39.358Z,99750.24
2019-01-11T18:14:46.058Z,99749.97
2019-01-11T18:17:51.892Z,99749.53
2019-01-11T18:20:57.531Z,99750.07
2019-01-11T18:24:03.116Z,99751.72
2019-01-11T18:27:08.751Z,99766.81
2019-01-11T18:30:15.942Z,99772.23
2019-01-11T18:33:21.622Z,99782.74
2019-01-11T18:36:27.348Z,99781.73
2019-01-11T18:39:32.968Z,99795.15
2019-01-11T18:42:38.590Z,99797.52
2019-01-11T18:45:44.181Z,99795.02
2019-01-11T18:48:49.820Z,99782.22
2019-01-11T18:51:55.475Z,99792.19
2019-01-11T18:55:01.272Z,99779.70
2019-01-11T18:58:07.282Z,99786.89
2019-01-11T19:01:12.927Z,99788.37
2019-01-11T19:04:18.566Z,99790.46
2019-01-11T19:07:25.204Z,99785.30
2019-01-11T19:10:30.915Z,99786.42
2019-01-11T19:13:36.646Z,99786.40
2019-01-11T19:16:42.308Z,99796.02
2019-01-11T19:19:48.024Z,99797.67
2019-01-11T19:22:53.799Z,99799.78
2019-01-11T19:25:59.398Z,99789.86
2019-01-11T19:29:05.232Z,99784.75
2019-01-11T19:32:10.852Z,99783.78
2019-01-11T19:35:16.460Z,99779.99
2019-01-11T19:38:22.428Z,99782.91
2019-01-11T19:41:28.129Z,99782.25
2019-01-11T19:44:33.803Z,99774.70
2019-01-11T19:47:39.539Z,99776.47
2019-01-11T19:50:46.300Z,99774.92
2019-01-11T19:53:51.997Z,99761.74
2019-01-11T19:56:57.566Z,99765.23
2019-01-11T20:00:03.171Z,99775.18
2019-01-11T20:03:09.018Z,99761.77
2019-01-11T20:06:14.589Z,99765.21
2019-01-11T20:09:20.323Z,99764.14
2019-01-11T20:12:25.927Z,99768.31
2019-01-11T20:15:32.050Z,99763.58
2019-01-11T20:18:37.826Z,99760.83
2019-01-11T20:21:43.545Z,99767.08
2019-01-11T20:24:49.717Z,99768.47
2019-01-11T20:27:55.343Z,99773.63
2019-01-11T20:31:00.977Z,99772.16
2019-01-11T20:34:08.702Z,99769.73
2019-01-11T20:37:38.983Z,99764.47
2019-01-11T20:40:44.718Z,99765.14
2019-01-11T20:43:50.342Z,99774.27
2019-01-11T20:46:55.988Z,99775.77
2019-01-11T20:50:01.619Z,99784.17
2019-01-11T20:53:07.222Z,99785.86
2019-01-11T20:56:12.946Z,99783.83
2019-01-11T20:59:18.572Z,99789.75
2019-01-11T21:02:24.296Z,99794.13
2019-01-11T21:05:30.416Z,99789.78
2019-01-11T21:08:36.035Z,99791.94
2019-01-11T21:11:41.697Z,99787.58
2019-01-11T21:14:47.331Z,99786.59
2019-01-11T21:17:53.156Z,99785.88
2019-01-11T21:20:58.748Z,99779.40
2019-01-11T21:24:04.677Z,99777.05
2019-01-11T21:27:10.472Z,99789.27
2019-01-11T21:30:24.361Z,99779.81
2019-01-11T21:33:30.101Z,99775.28
2019-01-11T21:36:35.769Z,99771.41
2019-01-11T21:39:41.528Z,99774.64
2019-01-11T21:42:47.657Z,99766.95
2019-01-11T21:45:53.325Z,99776.94
2019-01-11T21:48:59.255Z,99772.16
2019-01-11T21:52:05.163Z,99763.78
2019-01-11T21:55:11.939Z,99759.81
2019-01-11T21:58:17.522Z,99770.52
2019-01-11T22:01:23.166Z,99774.19
2019-01-11T22:04:28.793Z,99769.02
2019-01-11T22:07:35.523Z,99761.38
2019-01-11T22:10:41.162Z,99766.27
2019-01-11T22:13:46.983Z,99754.11
2019-01-11T22:16:52.744Z,99753.85
2019-01-11T22:19:58.529Z,99756.91
2019-01-11T22:23:04.376Z,99753.28
2019-01-11T22:26:10.236Z,99748.39
2019-01-11T22:29:16.093Z,99751.92
2019-01-11T22:32:21.824Z,99749.05
2019-01-11T22:35:27.507Z,99756.48
2019-01-11T22:38:33.188Z,99757.89
2019-01-11T22:41:38.885Z,99755.47
2019-01-11T22:44:44.466Z,99753.36
2019-01-11T22:47:50.129Z,99756.27
2019-01-11T22:50:55.777Z,99761.45
2019-01-11T22:54:01.405Z,99766.88
2019-01-11T22:57:07.172Z,99755.16
2019-01-11T23:00:42.002Z,99750.55
2019-01-11T23:03:51.070Z,99742.23
2019-01-11T23:07:22.140Z,99754.84
2019-01-11T23:11:07.398Z,99754.65
2019-01-11T23:14:13.037Z,99754.47
2019-01-11T23:17:34.466Z,99752.80
2019-01-11T23:20:40.198Z,99751.34
2019-01-11T23:23:45.938Z,99751.33
2019-01-11T23:26:51.652Z,99743.48
2019-01-11T23:29:57.374Z,99732.28
2019-01-11T23:33:03.111Z,99737.55
2019-01-11T23:36:08.895Z,99733.23
2019-01-11T23:39:14.562Z,99733.77
2019-01-11T23:42:20.192Z,99739.36
2019-01-11T23:45:25.985Z,99733.30
2019-01-11T23:48:31.613Z,99731.64
2019-01-11T23:51:37.277Z,99740.77
2019-01-11T23:54:42.903Z,99734.95
2019-01-11T23:57:48.549Z,99730.45
